Time;durP1;ratioP1;P1;durP2;ratioP2;P2;SDS_P1;SDS_P2;PMS_P1;PMS_P2;Temp;Humidity;BMP_temperature;BMP_pressure;BME280_temperature;BME280_humidity;BME280_pressure;Samples;Min_cycle;Max_cycle;Signal;HPM_P1;HPM_P2
2022/11/23 00:01:50;;;;;;;13.63;9.35;;;7.60;99.90;;;;;;5158394;27;20546;-67
2022/11/23 00:04:16;;;;;;;11.95;8.75;;;7.70;99.90;;;;;;5138998;27;20382;-67
2022/11/23 00:06:42;;;;;;;13.05;9.35;;;7.30;99.90;;;;;;5157990;27;20118;-67
2022/11/23 00:09:09;;;;;;;15.43;9.65;;;7.60;99.90;;;;;;5157968;27;20042;-67
2022/11/23 00:11:35;;;;;;;12.48;8.57;;;7.20;99.90;;;;;;5158413;27;20389;-66
2022/11/23 00:14:01;;;;;;;13.15;9.43;;;7.60;99.90;;;;;;5158027;27;20039;-67
2022/11/23 00:16:28;;;;;;;14.43;9.35;;;7.50;99.90;;;;;;5157855;27;20042;-67
2022/11/23 00:18:56;;;;;;;12.90;9.90;;;8.10;99.90;;;;;;5139343;27;20042;-67
2022/11/23 00:21:23;;;;;;;12.88;9.45;;;7.60;99.90;;;;;;5157682;27;20049;-67
2022/11/23 00:23:49;;;;;;;14.57;9.75;;;7.60;99.90;;;;;;5157569;27;20042;-67
2022/11/23 00:26:16;;;;;;;16.30;10.35;;;7.40;99.90;;;;;;5139064;27;20047;-67
2022/11/23 00:28:42;;;;;;;13.07;10.00;;;7.70;99.90;;;;;;5157546;27;20049;-67
2022/11/23 00:31:14;;;;;;;14.80;10.00;;;7.50;99.90;;;;;;5157582;27;20043;-66
2022/11/23 00:33:40;;;;;;;16.10;10.98;;;7.10;99.90;;;;;;5156959;27;20054;-67
2022/11/23 00:36:14;;;;;;;15.52;10.32;;;7.80;99.90;;;;;;5157399;27;20514;-66
2022/11/23 00:38:41;;;;;;;16.15;10.63;;;7.70;99.90;;;;;;5122199;27;20054;-66
2022/11/23 00:41:10;;;;;;;15.90;10.68;;;7.30;99.90;;;;;;5157235;27;20057;-66
2022/11/23 00:43:39;;;;;;;15.25;10.40;;;7.40;99.90;;;;;;5139204;27;20043;-67
2022/11/23 00:46:07;;;;;;;15.18;10.93;;;7.20;99.90;;;;;;5157494;27;20051;-66
2022/11/23 00:48:33;;;;;;;16.40;10.82;;;7.50;99.90;;;;;;5157099;27;20071;-67
2022/11/23 00:51:00;;;;;;;14.02;10.40;;;7.70;99.90;;;;;;5139573;27;20039;-67
2022/11/23 00:53:26;;;;;;;17.00;11.30;;;7.10;99.90;;;;;;5157608;27;20386;-67
2022/11/23 00:55:53;;;;;;;13.68;9.88;;;7.40;99.90;;;;;;5139090;27;20047;-67
2022/11/23 00:58:19;;;;;;;15.45;11.10;;;7.30;99.90;;;;;;5156973;27;20440;-67
2022/11/23 01:00:44;;;;;;;15.52;10.73;;;7.30;99.90;;;;;;5157013;27;20039;-67
2022/11/23 01:03:10;;;;;;;14.23;10.48;;;7.70;99.90;;;;;;5156325;27;20053;-67
2022/11/23 01:05:37;;;;;;;14.60;9.85;;;7.30;99.90;;;;;;5138814;27;20390;-67
2022/11/23 01:08:04;;;;;;;15.55;10.38;;;7.40;99.90;;;;;;5157323;27;20046;-67
2022/11/23 01:10:30;;;;;;;14.82;10.15;;;7.50;99.90;;;;;;5137987;27;20126;-67
2022/11/23 01:12:56;;;;;;;13.77;9.85;;;7.70;99.90;;;;;;5138323;27;20039;-67
2022/11/23 01:15:22;;;;;;;15.38;9.68;;;7.70;99.90;;;;;;5156654;27;20125;-66
2022/11/23 01:17:47;;;;;;;16.58;10.60;;;7.70;99.90;;;;;;5156448;27;20039;-67
2022/11/23 01:20:13;;;;;;;14.00;10.45;;;7.70;99.90;;;;;;5156202;27;20175;-67
2022/11/23 01:22:39;;;;;;;12.85;9.95;;;7.40;99.90;;;;;;5156491;27;20047;-67
2022/11/23 01:25:05;;;;;;;14.10;10.00;;;7.50;99.90;;;;;;5137915;27;20095;-67
2022/11/23 01:27:31;;;;;;;15.00;9.85;;;7.60;99.90;;;;;;5156379;27;20046;-67
2022/11/23 01:29:56;;;;;;;12.93;9.45;;;8.00;99.90;;;;;;5156310;27;20383;-67
2022/11/23 01:32:22;;;;;;;14.20;10.63;;;7.50;99.90;;;;;;5156268;27;20122;-67
2022/11/23 01:34:48;;;;;;;14.85;10.15;;;7.40;99.90;;;;;;5155686;27;20039;-67
2022/11/23 01:37:13;;;;;;;13.85;10.23;;;8.20;99.90;;;;;;5103995;27;20042;-67
2022/11/23 01:39:39;;;;;;;15.88;9.82;;;7.70;99.90;;;;;;5137730;27;20049;-67
2022/11/23 01:42:07;;;;;;;12.95;10.05;;;7.50;99.90;;;;;;5156121;27;20051;-67
2022/11/23 01:44:36;;;;;;;15.90;10.70;;;7.80;99.90;;;;;;5156124;27;20127;-67
2022/11/23 01:47:06;;;;;;;15.20;10.90;;;7.60;99.90;;;;;;5137927;27;20111;-67
2022/11/23 01:49:42;;;;;;;14.73;10.90;;;7.40;99.90;;;;;;5156039;27;20060;-67
2022/11/23 01:52:19;;;;;;;14.70;10.30;;;7.70;99.90;;;;;;5137446;27;20505;-67
2022/11/23 01:54:53;;;;;;;14.38;10.68;;;8.00;99.90;;;;;;5136188;27;20047;-67
2022/11/23 01:57:30;;;;;;;14.68;10.98;;;7.80;99.90;;;;;;5116874;27;20043;-67
2022/11/23 01:59:56;;;;;;;16.85;10.45;;;8.00;99.90;;;;;;5100133;27;20043;-67
2022/11/23 02:02:25;;;;;;;16.33;11.07;;;7.60;99.90;;;;;;5134693;27;20487;-67
2022/11/23 02:04:52;;;;;;;14.77;11.18;;;7.70;99.90;;;;;;5134336;27;20050;-67
2022/11/23 02:07:20;;;;;;;17.48;11.02;;;7.50;99.90;;;;;;5134973;27;20438;-67
2022/11/23 02:09:47;;;;;;;13.00;10.38;;;7.90;99.90;;;;;;5134657;27;20043;-67
2022/11/23 02:12:13;;;;;;;14.27;10.82;;;7.80;99.90;;;;;;5134780;27;20129;-67
2022/11/23 02:14:40;;;;;;;15.80;10.75;;;7.70;99.90;;;;;;5134886;27;20039;-67
2022/11/23 02:17:07;;;;;;;15.93;10.93;;;8.00;99.90;;;;;;5116574;27;20043;-67
2022/11/23 02:19:46;;;;;;;14.68;10.45;;;7.50;99.90;;;;;;5134808;27;20363;-67
2022/11/23 02:22:21;;;;;;;13.27;10.13;;;7.40;99.90;;;;;;5115904;27;20047;-66
2022/11/23 02:24:52;;;;;;;13.68;10.43;;;7.90;99.90;;;;;;5116438;27;20088;-67
2022/11/23 02:27:18;;;;;;;15.57;11.07;;;7.40;99.90;;;;;;5116154;27;20054;-67
2022/11/23 02:29:46;;;;;;;15.38;11.18;;;7.60;99.90;;;;;;5134645;27;20047;-67
2022/11/23 02:32:17;;;;;;;18.20;11.88;;;7.90;99.90;;;;;;5116643;27;20043;-67
2022/11/23 02:34:43;;;;;;;14.77;11.13;;;7.80;99.90;;;;;;5134270;27;20479;-67
2022/11/23 02:37:09;;;;;;;14.13;9.88;;;7.40;99.90;;;;;;5134533;28;20096;-66
2022/11/23 02:39:43;;;;;;;15.75;10.80;;;8.10;99.90;;;;;;5116282;28;20064;-66
2022/11/23 02:42:09;;;;;;;14.05;9.98;;;7.80;99.90;;;;;;5134544;28;20090;-67
2022/11/23 02:45:14;;;;;;;15.70;11.40;;;7.70;99.90;;;;;;5134444;28;20039;-67
2022/11/23 02:47:39;;;;;;;15.20;10.63;;;7.60;99.90;;;;;;5134179;28;20039;-67
2022/11/23 02:50:05;;;;;;;14.98;10.23;;;7.90;99.90;;;;;;5099133;28;20092;-67
2022/11/23 02:52:31;;;;;;;12.50;9.50;;;7.60;99.90;;;;;;5082059;28;20103;-67
2022/11/23 02:54:57;;;;;;;14.30;9.85;;;8.00;99.90;;;;;;5116145;28;20051;-67
2022/11/23 02:57:22;;;;;;;16.58;11.05;;;7.90;99.90;;;;;;5134529;28;20051;-66
2022/11/23 02:59:48;;;;;;;16.30;10.73;;;7.80;99.90;;;;;;5116005;28;20047;-67
2022/11/23 03:02:14;;;;;;;15.85;10.60;;;7.60;99.90;;;;;;5116275;28;20050;-67
2022/11/23 03:04:39;;;;;;;14.10;10.40;;;7.90;99.90;;;;;;5133693;28;20039;-67
2022/11/23 03:07:05;;;;;;;13.57;10.07;;;7.60;99.90;;;;;;5134314;28;20498;-67
2022/11/23 03:09:31;;;;;;;14.13;10.80;;;7.80;99.90;;;;;;5134662;28;20544;-67
2022/11/23 03:11:57;;;;;;;16.45;11.43;;;7.60;99.90;;;;;;5134240;28;20046;-67
2022/11/23 03:14:23;;;;;;;18.02;12.40;;;8.20;99.90;;;;;;5134206;28;20132;-66
2022/11/23 03:16:48;;;;;;;15.38;10.68;;;8.00;99.90;;;;;;5115845;28;20043;-66
2022/11/23 03:19:14;;;;;;;18.33;10.93;;;8.00;99.90;;;;;;5134058;28;20054;-67
2022/11/23 03:21:40;;;;;;;15.93;11.05;;;7.90;99.90;;;;;;5134084;28;20055;-67
2022/11/23 03:24:06;;;;;;;14.07;9.80;;;7.90;99.90;;;;;;5133975;28;20043;-67
2022/11/23 03:26:31;;;;;;;15.63;10.88;;;7.70;99.90;;;;;;5134112;28;20127;-66
2022/11/23 03:28:57;;;;;;;16.65;11.38;;;7.90;99.90;;;;;;5115847;28;20478;-66
2022/11/23 03:31:23;;;;;;;16.77;10.88;;;7.90;99.90;;;;;;5134097;28;20049;-66
2022/11/23 03:33:48;;;;;;;16.40;10.75;;;7.90;99.90;;;;;;5136795;27;20490;-67
2022/11/23 03:36:14;;;;;;;13.45;9.55;;;8.30;99.90;;;;;;5119583;27;20043;-66
2022/11/23 03:38:39;;;;;;;16.23;10.77;;;7.90;99.90;;;;;;5119708;27;20085;-66
2022/11/23 03:41:05;;;;;;;15.57;10.82;;;8.00;99.90;;;;;;5137798;27;20059;-66
2022/11/23 03:43:31;;;;;;;14.32;10.43;;;7.70;99.90;;;;;;5137392;27;20039;-67
2022/11/23 03:45:58;;;;;;;17.38;10.23;;;8.10;99.90;;;;;;5118978;27;20071;-66
2022/11/23 03:48:23;;;;;;;15.15;9.95;;;8.00;99.90;;;;;;5137876;27;20082;-66
2022/11/23 03:50:49;;;;;;;15.02;10.48;;;8.00;99.90;;;;;;5137617;27;20395;-66
2022/11/23 03:53:15;;;;;;;16.85;10.77;;;8.30;99.90;;;;;;5137370;27;20076;-67
2022/11/23 03:55:40;;;;;;;15.02;10.60;;;8.00;99.90;;;;;;5137472;27;20050;-67
2022/11/23 03:58:06;;;;;;;13.73;9.25;;;7.70;99.90;;;;;;5101766;27;20136;-67
2022/11/23 04:00:33;;;;;;;12.75;9.48;;;7.80;99.90;;;;;;5137335;27;20047;-67
2022/11/23 04:02:59;;;;;;;18.17;11.20;;;8.00;99.90;;;;;;5137362;27;20051;-67
2022/11/23 04:05:26;;;;;;;16.88;10.65;;;7.70;99.90;;;;;;5136324;27;20047;-66
2022/11/23 04:07:52;;;;;;;15.68;9.98;;;7.70;99.90;;;;;;5137292;27;20110;-67
2022/11/23 04:10:19;;;;;;;16.60;10.90;;;8.10;99.90;;;;;;5137170;27;20039;-67
2022/11/23 04:12:44;;;;;;;14.75;10.25;;;8.00;99.90;;;;;;5137126;27;20191;-67
2022/11/23 04:15:11;;;;;;;18.13;9.68;;;7.70;99.90;;;;;;5137461;27;20083;-67
2022/11/23 04:17:37;;;;;;;14.25;9.77;;;8.40;99.90;;;;;;5137084;27;20089;-67
2022/11/23 04:20:04;;;;;;;18.33;9.85;;;7.70;99.90;;;;;;5137024;27;20043;-66
2022/11/23 04:22:30;;;;;;;12.43;8.98;;;7.70;99.90;;;;;;5136895;27;20049;-66
2022/11/23 04:24:56;;;;;;;14.30;9.85;;;7.70;99.90;;;;;;5136758;27;20383;-66
2022/11/23 04:27:21;;;;;;;13.68;9.00;;;7.90;99.90;;;;;;5118841;27;20058;-66
2022/11/23 04:29:47;;;;;;;17.25;10.70;;;8.30;99.90;;;;;;5118206;27;20051;-66
2022/11/23 04:32:12;;;;;;;16.08;10.48;;;7.80;99.90;;;;;;5118823;27;20050;-66
2022/11/23 04:34:38;;;;;;;17.73;10.55;;;7.80;99.90;;;;;;5136184;27;20386;-66
2022/11/23 04:37:04;;;;;;;18.15;11.00;;;8.00;99.90;;;;;;5136685;27;20036;-66
2022/11/23 04:39:29;;;;;;;14.40;9.95;;;7.80;99.90;;;;;;5136642;27;20074;-66
2022/11/23 04:41:55;;;;;;;14.02;9.65;;;7.80;99.90;;;;;;5136603;27;20039;-66
2022/11/23 04:44:21;;;;;;;15.18;9.43;;;8.00;99.90;;;;;;5135962;27;20035;-66
2022/11/23 04:46:49;;;;;;;15.02;10.60;;;8.00;99.90;;;;;;5118358;27;20065;-66
2022/11/23 04:49:14;;;;;;;17.75;9.68;;;8.00;99.90;;;;;;5136429;27;20384;-66
2022/11/23 04:51:40;;;;;;;15.60;9.70;;;7.70;99.90;;;;;;5136443;27;20096;-66
2022/11/23 04:54:06;;;;;;;15.55;10.40;;;8.10;99.90;;;;;;5136682;27;20502;-66
2022/11/23 04:56:32;;;;;;;16.45;10.25;;;7.70;99.90;;;;;;5136648;27;20439;-66
2022/11/23 04:58:57;;;;;;;17.90;10.05;;;7.80;99.90;;;;;;5118146;27;20074;-66
2022/11/23 05:01:23;;;;;;;16.30;9.55;;;7.90;99.90;;;;;;5118419;27;20049;-66
2022/11/23 05:03:49;;;;;;;13.50;8.73;;;8.50;99.90;;;;;;5136233;27;20475;-66
2022/11/23 05:06:14;;;;;;;13.88;9.00;;;7.80;99.90;;;;;;5117696;27;20047;-66
2022/11/23 05:08:42;;;;;;;16.20;9.73;;;8.00;99.90;;;;;;5136007;27;20050;-66
2022/11/23 05:11:07;;;;;;;14.57;9.40;;;8.00;99.90;;;;;;5136668;27;20039;-67
2022/11/23 05:13:33;;;;;;;15.85;9.10;;;8.20;99.90;;;;;;5136752;27;20512;-66
2022/11/23 05:15:59;;;;;;;15.88;9.52;;;7.80;99.90;;;;;;5117816;27;20051;-66
2022/11/23 05:18:24;;;;;;;15.82;9.20;;;7.50;99.90;;;;;;5135674;27;20039;-67
2022/11/23 05:20:50;;;;;;;15.77;9.63;;;8.00;99.90;;;;;;5135809;27;20075;-67
2022/11/23 05:23:16;;;;;;;15.52;10.02;;;8.10;99.90;;;;;;5135761;27;20118;-66
2022/11/23 05:25:42;;;;;;;14.05;9.43;;;7.90;99.90;;;;;;5136158;27;20076;-67
2022/11/23 05:28:15;;;;;;;17.85;10.35;;;8.10;99.90;;;;;;5135681;27;20086;-67
2022/11/23 05:30:40;;;;;;;14.32;9.50;;;8.10;99.90;;;;;;5135700;27;20119;-67
2022/11/23 05:33:06;;;;;;;18.45;11.00;;;8.10;99.90;;;;;;5136009;27;20043;-66
2022/11/23 05:35:32;;;;;;;13.68;9.63;;;8.00;99.90;;;;;;5134915;27;20054;-67
2022/11/23 05:37:59;;;;;;;15.82;9.75;;;8.00;99.90;;;;;;5135528;27;20042;-66
2022/11/23 05:40:25;;;;;;;16.40;10.15;;;8.10;99.90;;;;;;5135442;27;20059;-67
2022/11/23 05:42:57;;;;;;;16.25;10.15;;;7.70;99.90;;;;;;5135473;27;20043;-67
2022/11/23 05:45:24;;;;;;;18.30;10.68;;;7.50;99.90;;;;;;5135265;27;20046;-66
2022/11/23 05:47:57;;;;;;;18.75;9.63;;;8.10;99.90;;;;;;5135837;27;20053;-67
2022/11/23 05:50:23;;;;;;;;;;;8.10;99.90;;;;;;5135374;27;20459;-67
2022/11/23 05:52:49;;;;;;;21.40;10.35;;;7.90;99.90;;;;;;5116909;27;19926;-66
2022/11/23 05:55:15;;;;;;;16.60;10.57;;;7.90;99.90;;;;;;5135104;27;20039;-66
2022/11/23 05:57:41;;;;;;;18.17;10.40;;;7.80;99.90;;;;;;5135117;27;20123;-66
2022/11/23 06:00:56;;;;;;;16.63;10.50;;;7.80;99.90;;;;;;5135057;27;20043;-67
2022/11/23 06:03:22;;;;;;;19.63;10.98;;;7.80;99.90;;;;;;5100072;27;20095;-67
2022/11/23 06:05:47;;;;;;;19.35;10.27;;;8.10;99.90;;;;;;5135209;27;20463;-66
2022/11/23 06:08:13;;;;;;;12.88;9.05;;;7.70;99.90;;;;;;5100186;27;20483;-67
2022/11/23 06:10:39;;;;;;;18.27;10.32;;;8.20;99.90;;;;;;5135244;27;20054;-67
2022/11/23 06:13:04;;;;;;;16.15;9.85;;;8.20;99.90;;;;;;5134883;27;20046;-66
2022/11/23 06:15:30;;;;;;;20.35;10.52;;;8.30;99.90;;;;;;5134876;27;20494;-66
2022/11/23 06:18:00;;;;;;;22.95;10.70;;;8.30;99.90;;;;;;5134787;27;20039;-66
2022/11/23 06:20:27;;;;;;;18.83;10.52;;;8.00;99.90;;;;;;5134816;27;20086;-66
2022/11/23 06:22:53;;;;;;;17.73;9.20;;;7.80;99.90;;;;;;5116589;28;20047;-67
2022/11/23 06:25:19;;;;;;;16.90;9.98;;;8.00;99.90;;;;;;5134721;27;20079;-67
2022/11/23 06:27:56;;;;;;;17.08;9.68;;;7.90;99.90;;;;;;5134684;27;20074;-67
2022/11/23 06:30:22;;;;;;;17.58;10.07;;;8.10;99.90;;;;;;5116547;28;20263;-67
2022/11/23 06:32:47;;;;;;;16.05;8.57;;;8.10;99.90;;;;;;5116416;28;20047;-67
2022/11/23 06:35:13;;;;;;;14.30;9.07;;;8.10;99.90;;;;;;5116004;28;20043;-67
2022/11/23 06:37:39;;;;;;;20.30;10.15;;;7.90;99.90;;;;;;5134554;28;20043;-67
2022/11/23 06:40:05;;;;;;;14.23;8.70;;;8.10;99.90;;;;;;5134464;28;20054;-66
2022/11/23 06:42:30;;;;;;;16.13;9.68;;;7.90;99.90;;;;;;5116197;28;20395;-66
2022/11/23 06:44:56;;;;;;;16.95;9.27;;;7.90;99.90;;;;;;5134398;28;20035;-66
2022/11/23 06:47:22;;;;;;;18.50;9.05;;;7.80;99.90;;;;;;5099340;28;20506;-67
2022/11/23 06:49:47;;;;;;;15.93;8.82;;;7.80;99.90;;;;;;5134455;28;20039;-67
2022/11/23 06:52:13;;;;;;;16.75;9.85;;;8.00;99.90;;;;;;5134251;28;20065;-67
2022/11/23 06:54:39;;;;;;;22.88;9.98;;;8.00;99.90;;;;;;5134568;28;20123;-67
2022/11/23 06:57:08;;;;;;;15.35;8.38;;;7.70;99.90;;;;;;5134382;28;20122;-67
2022/11/23 06:59:33;;;;;;;16.27;8.93;;;8.50;99.90;;;;;;5116077;28;20096;-66
2022/11/23 07:01:59;;;;;;;17.42;8.95;;;7.70;99.90;;;;;;5134335;28;20039;-67
2022/11/23 07:04:25;;;;;;;16.25;8.43;;;7.80;99.90;;;;;;5133839;28;20379;-67
2022/11/23 07:06:50;;;;;;;13.38;8.52;;;7.90;99.90;;;;;;5116419;28;20432;-67
2022/11/23 07:09:16;;;;;;;16.08;8.88;;;7.90;99.90;;;;;;5138041;27;20126;-67
2022/11/23 07:11:42;;;;;;;12.93;8.65;;;7.90;99.90;;;;;;5120684;27;20058;-67
2022/11/23 07:14:08;;;;;;;14.20;7.43;;;7.70;99.90;;;;;;5120135;27;20046;-67
2022/11/23 07:16:34;;;;;;;16.40;7.55;;;7.80;99.90;;;;;;5120046;27;20375;-67
2022/11/23 07:18:59;;;;;;;15.23;8.70;;;8.40;99.90;;;;;;5138226;27;20082;-67
2022/11/23 07:21:25;;;;;;;14.10;8.10;;;8.00;99.90;;;;;;5138164;27;20050;-67
2022/11/23 07:23:51;;;;;;;14.77;8.20;;;7.90;99.90;;;;;;5138085;27;20039;-67
2022/11/23 07:26:16;;;;;;;15.30;8.00;;;7.90;99.90;;;;;;5138500;27;20082;-67
2022/11/23 07:28:42;;;;;;;12.38;7.72;;;8.10;99.90;;;;;;5138030;27;20397;-67
2022/11/23 07:31:08;;;;;;;15.60;7.63;;;7.90;99.90;;;;;;5138853;27;20047;-66
2022/11/23 07:33:33;;;;;;;15.10;7.45;;;7.80;99.90;;;;;;5102315;27;20039;-67
2022/11/23 07:36:03;;;;;;;14.10;6.72;;;7.80;99.90;;;;;;5119810;27;20424;-67
2022/11/23 07:38:29;;;;;;;12.38;7.18;;;7.70;99.90;;;;;;5138046;27;20043;-66
2022/11/23 07:40:55;;;;;;;11.40;6.20;;;8.40;99.90;;;;;;5138094;27;20054;-66
2022/11/23 07:43:21;;;;;;;16.35;8.18;;;7.80;99.90;;;;;;5137763;27;20471;-66
2022/11/23 07:45:46;;;;;;;13.65;6.93;;;8.00;99.90;;;;;;5137628;27;20049;-66
2022/11/23 07:48:12;;;;;;;11.85;5.97;;;7.90;99.90;;;;;;5137851;27;20051;-66
2022/11/23 07:50:39;;;;;;;13.35;5.75;;;7.70;99.90;;;;;;5119781;27;20497;-66
2022/11/23 07:53:06;;;;;;;13.43;5.38;;;8.40;99.90;;;;;;5137238;27;20063;-66
2022/11/23 07:55:32;;;;;;;14.45;5.40;;;7.70;99.90;;;;;;5137551;27;20051;-66
2022/11/23 07:57:58;;;;;;;10.70;5.22;;;8.40;99.90;;;;;;5137516;27;20043;-66
2022/11/23 08:00:26;;;;;;;12.70;5.47;;;8.10;99.90;;;;;;5118960;27;20588;-67
2022/11/23 08:02:52;;;;;;;12.90;4.97;;;8.00;99.90;;;;;;5137469;27;20414;-67
2022/11/23 08:05:18;;;;;;;11.50;5.15;;;8.00;99.90;;;;;;5136789;27;20039;-67
2022/11/23 08:07:44;;;;;;;14.05;5.45;;;8.20;99.90;;;;;;5119167;27;20553;-66
2022/11/23 08:10:11;;;;;;;11.32;5.07;;;7.90;99.90;;;;;;5137283;27;20043;-67
2022/11/23 08:12:38;;;;;;;10.63;5.00;;;8.00;99.90;;;;;;5137210;27;20047;-67
2022/11/23 08:15:04;;;;;;;10.68;5.13;;;8.20;99.90;;;;;;5137149;27;20043;-66
2022/11/23 08:17:30;;;;;;;13.45;6.05;;;7.80;99.90;;;;;;5137251;27;20139;-66
2022/11/23 08:19:55;;;;;;;12.18;5.22;;;8.10;99.90;;;;;;5136131;27;20085;-66
2022/11/23 08:22:21;;;;;;;7.50;4.65;;;8.10;99.90;;;;;;5137062;27;20043;-66
2022/11/23 08:24:47;;;;;;;10.57;4.65;;;7.90;99.90;;;;;;5136993;27;20436;-66
2022/11/23 08:27:13;;;;;;;11.82;4.53;;;7.90;99.90;;;;;;5137386;27;20043;-66
2022/11/23 08:29:38;;;;;;;9.55;4.43;;;7.80;99.90;;;;;;5137711;27;20140;-67
2022/11/23 08:32:04;;;;;;;14.88;4.20;;;8.80;99.90;;;;;;5118765;27;20498;-66
2022/11/23 08:34:30;;;;;;;13.43;5.35;;;7.80;99.90;;;;;;5136287;27;20039;-66
2022/11/23 08:36:56;;;;;;;8.18;3.67;;;8.10;99.90;;;;;;5118625;27;20048;-66
2022/11/23 08:39:21;;;;;;;9.32;3.60;;;8.20;99.90;;;;;;5118282;27;20367;-66
2022/11/23 08:41:47;;;;;;;7.65;4.20;;;8.10;99.90;;;;;;5136814;27;20050;-67
2022/11/23 08:44:13;;;;;;;13.40;4.68;;;8.20;99.90;;;;;;5136504;27;20364;-66
2022/11/23 08:46:39;;;;;;;14.52;6.30;;;8.00;99.90;;;;;;5136597;27;20050;-66
2022/11/23 08:49:06;;;;;;;9.75;4.95;;;8.20;99.90;;;;;;5101352;27;20447;-67
2022/11/23 08:51:32;;;;;;;9.77;4.20;;;8.70;99.90;;;;;;5136477;27;20059;-66
2022/11/23 08:53:57;;;;;;;9.43;4.13;;;8.20;99.90;;;;;;5136813;27;20130;-66
2022/11/23 08:56:23;;;;;;;9.25;3.63;;;8.20;99.90;;;;;;5136332;27;20050;-67
2022/11/23 08:58:49;;;;;;;11.60;3.85;;;8.00;99.90;;;;;;5118212;27;20046;-66
2022/11/23 09:01:16;;;;;;;11.55;4.80;;;8.50;99.90;;;;;;5118160;27;20395;-66
2022/11/23 09:03:43;;;;;;;12.50;4.25;;;8.40;99.90;;;;;;5135719;27;20046;-67
2022/11/23 09:06:09;;;;;;;9.93;4.22;;;8.60;99.90;;;;;;5136086;27;20065;-66
2022/11/23 09:08:36;;;;;;;6.97;4.07;;;8.00;99.90;;;;;;5117828;27;20505;-66
2022/11/23 09:11:08;;;;;;;7.43;4.00;;;8.00;99.90;;;;;;5136856;27;20047;-66
2022/11/23 09:13:40;;;;;;;9.13;4.10;;;8.40;99.90;;;;;;5136019;27;20039;-66
2022/11/23 09:16:06;;;;;;;7.13;4.07;;;8.50;99.90;;;;;;5117718;27;20111;-67
2022/11/23 09:18:34;;;;;;;7.93;3.53;;;8.10;99.90;;;;;;5136178;27;20462;-66
2022/11/23 09:21:03;;;;;;;7.75;4.18;;;8.10;99.90;;;;;;5135742;27;20497;-66
2022/11/23 09:23:28;;;;;;;10.57;3.67;;;8.20;99.90;;;;;;5135963;27;20046;-67
2022/11/23 09:25:57;;;;;;;10.23;3.67;;;8.70;99.90;;;;;;5135837;27;20130;-67
2022/11/23 09:28:23;;;;;;;8.68;3.25;;;8.60;99.90;;;;;;5135960;27;20049;-67
2022/11/23 09:30:49;;;;;;;7.47;3.42;;;8.30;99.90;;;;;;5135504;27;20047;-67
2022/11/23 09:33:15;;;;;;;10.30;3.55;;;9.20;99.90;;;;;;5136158;27;20425;-67
2022/11/23 09:35:41;;;;;;;8.63;3.40;;;8.30;99.90;;;;;;5135342;27;20039;-66
2022/11/23 09:38:07;;;;;;;8.98;3.80;;;8.40;99.90;;;;;;5135918;27;20050;-67
2022/11/23 09:40:37;;;;;;;13.90;4.35;;;9.00;99.90;;;;;;5135580;27;20074;-66
2022/11/23 09:43:22;;;;;;;13.18;3.85;;;8.60;99.90;;;;;;5136122;27;20049;-67
2022/11/23 09:45:53;;;;;;;9.48;3.78;;;8.40;99.90;;;;;;5135484;27;20416;-67
2022/11/23 09:48:50;;;;;;;12.50;3.88;;;8.60;99.90;;;;;;5135192;27;20376;-66
2022/11/23 09:51:19;;;;;;;11.90;3.83;;;8.50;99.90;;;;;;5135456;27;20096;-66
2022/11/23 09:54:04;;;;;;;11.02;3.45;;;8.70;99.90;;;;;;5135062;27;20050;-66
2022/11/23 09:56:33;;;;;;;8.70;3.58;;;9.00;99.90;;;;;;5135633;27;20464;-66
2022/11/23 09:59:02;;;;;;;8.50;3.45;;;8.50;99.90;;;;;;5135299;27;20050;-66
2022/11/23 10:01:29;;;;;;;6.13;2.80;;;9.10;99.90;;;;;;5135256;27;20039;-66
2022/11/23 10:03:55;;;;;;;10.48;3.45;;;9.20;99.90;;;;;;5134375;27;20050;-66
2022/11/23 10:06:24;;;;;;;13.45;3.67;;;8.50;99.90;;;;;;5117110;27;20047;-66
2022/11/23 10:08:58;;;;;;;10.10;3.28;;;8.50;99.90;;;;;;5117156;27;20112;-66
2022/11/23 10:11:50;;;;;;;9.25;3.67;;;8.60;99.90;;;;;;5135509;27;20039;-66
2022/11/23 10:14:53;;;;;;;12.63;3.17;;;8.40;99.90;;;;;;5134796;27;20551;-66
2022/11/23 10:17:27;;;;;;;10.18;3.90;;;8.60;99.90;;;;;;5135045;27;20150;-65
2022/11/23 10:20:14;;;;;;;8.70;3.28;;;9.00;99.90;;;;;;5134966;27;20047;-66
2022/11/23 10:22:55;;;;;;;10.52;3.70;;;8.60;99.90;;;;;;5116739;27;20051;-67
2022/11/23 10:25:23;;;;;;;9.50;2.85;;;8.60;99.90;;;;;;5143885;27;20046;-67
2022/11/23 10:27:53;;;;;;;8.02;2.70;;;8.90;99.90;;;;;;5145002;27;20043;-66
2022/11/23 10:30:19;;;;;;;10.77;3.10;;;8.70;99.90;;;;;;5145116;27;20054;-67
2022/11/23 10:32:51;;;;;;;5.85;2.42;;;8.80;99.90;;;;;;5132176;27;20513;-67
2022/11/23 10:35:22;;;;;;;9.65;2.63;;;8.70;99.90;;;;;;5145009;27;20047;-66
2022/11/23 10:37:48;;;;;;;8.18;2.65;;;8.50;99.90;;;;;;5144289;27;20095;-66
2022/11/23 10:40:26;;;;;;;8.73;2.30;;;8.70;99.90;;;;;;5143916;27;20042;-67
2022/11/23 10:43:11;;;;;;;8.07;2.50;;;9.30;99.90;;;;;;5143900;27;20047;-66
2022/11/23 10:45:37;;;;;;;7.28;2.78;;;8.60;99.90;;;;;;5145211;27;20375;-67
2022/11/23 10:48:02;;;;;;;9.15;3.10;;;8.70;99.90;;;;;;5142733;27;20046;-67
2022/11/23 10:50:31;;;;;;;9.00;2.50;;;8.80;99.90;;;;;;5125353;27;20396;-66
2022/11/23 10:53:00;;;;;;;7.93;1.90;;;8.60;99.90;;;;;;5143642;27;20142;-66
2022/11/23 10:55:29;;;;;;;7.80;2.67;;;8.70;99.90;;;;;;5126811;27;20362;-66
2022/11/23 10:57:56;;;;;;;7.00;1.90;;;8.60;99.90;;;;;;5109673;27;20384;-67
2022/11/23 11:00:24;;;;;;;6.72;2.13;;;9.20;99.90;;;;;;5124513;27;20050;-66
2022/11/23 11:02:57;;;;;;;6.75;1.90;;;8.90;99.90;;;;;;5144650;27;20088;-66
2022/11/23 11:05:42;;;;;;;6.45;1.75;;;9.00;99.90;;;;;;5127567;27;20103;-66
2022/11/23 11:08:16;;;;;;;11.88;2.58;;;8.60;99.90;;;;;;5143812;27;20114;-67
2022/11/23 11:10:43;;;;;;;8.38;2.10;;;9.00;99.90;;;;;;5124701;27;20153;-67
2022/11/23 11:13:37;;;;;;;8.32;1.88;;;8.70;99.90;;;;;;5121179;27;20047;-67
2022/11/23 11:16:05;;;;;;;10.05;1.83;;;8.70;99.90;;;;;;5144542;27;20050;-67
2022/11/23 11:18:34;;;;;;;5.75;1.65;;;8.70;99.90;;;;;;5143431;27;20042;-67
2022/11/23 11:21:06;;;;;;;7.82;1.98;;;9.00;99.90;;;;;;5124211;27;20043;-67
2022/11/23 11:23:33;;;;;;;11.38;1.90;;;8.70;99.90;;;;;;5123767;28;20043;-67
2022/11/23 11:26:26;;;;;;;6.82;1.45;;;8.70;99.90;;;;;;5144578;27;20178;-67
2022/11/23 11:29:00;;;;;;;7.10;1.88;;;8.90;99.90;;;;;;5121788;27;20055;-67
2022/11/23 11:31:44;;;;;;;10.38;2.17;;;8.80;99.90;;;;;;5124323;27;20070;-68
2022/11/23 11:34:15;;;;;;;5.97;1.55;;;8.70;99.90;;;;;;5124542;27;20043;-68
2022/11/23 11:36:58;;;;;;;6.82;1.63;;;8.60;99.90;;;;;;5142295;27;20062;-67
2022/11/23 11:39:56;;;;;;;8.13;2.10;;;8.70;99.90;;;;;;5142269;27;20390;-67
2022/11/23 11:42:44;;;;;;;6.90;1.52;;;8.80;99.90;;;;;;5119849;27;20064;-67
2022/11/23 11:45:20;;;;;;;8.98;1.60;;;9.10;99.90;;;;;;5141864;27;20035;-68
2022/11/23 11:48:07;;;;;;;7.78;1.90;;;8.80;99.90;;;;;;5124343;27;20086;-68
2022/11/23 11:50:46;;;;;;;5.35;1.60;;;8.90;99.90;;;;;;5124789;27;20059;-67
2022/11/23 11:53:16;;;;;;;8.77;1.90;;;8.80;99.90;;;;;;5126632;27;20069;-66
2022/11/23 11:55:55;;;;;;;8.65;2.03;;;8.90;99.90;;;;;;5129621;27;20047;-67
2022/11/23 11:58:24;;;;;;;8.05;1.70;;;8.90;99.90;;;;;;5148246;27;20478;-66
2022/11/23 12:00:58;;;;;;;6.43;1.70;;;8.90;99.90;;;;;;5127782;27;20127;-67
2022/11/23 12:03:33;;;;;;;9.65;2.10;;;8.90;99.90;;;;;;5129769;27;20035;-66
2022/11/23 12:06:07;;;;;;;8.60;2.53;;;9.10;99.90;;;;;;5146431;27;20034;-68
2022/11/23 12:08:54;;;;;;;11.07;2.60;;;9.00;99.90;;;;;;5128622;27;20039;-67
2022/11/23 12:11:20;;;;;;;7.93;1.75;;;9.10;99.90;;;;;;5147799;27;20115;-68
2022/11/23 12:13:45;;;;;;;8.48;1.83;;;9.00;99.90;;;;;;5147602;27;20503;-67
2022/11/23 12:16:19;;;;;;;7.35;1.80;;;9.10;99.90;;;;;;5130950;27;20046;-67
2022/11/23 12:18:55;;;;;;;5.80;1.55;;;9.10;99.90;;;;;;5147600;27;20129;-67
2022/11/23 12:21:38;;;;;;;9.35;2.13;;;10.00;99.90;;;;;;5147765;27;20127;-67
2022/11/23 12:24:39;;;;;;;10.00;1.70;;;9.10;99.90;;;;;;5129418;27;20038;-67
2022/11/23 12:27:42;;;;;;;6.57;1.75;;;9.10;99.90;;;;;;5130001;27;20398;-67
2022/11/23 12:30:19;;;;;;;6.20;1.50;;;9.20;99.90;;;;;;5129590;27;20122;-67
2022/11/23 12:33:00;;;;;;;7.03;1.30;;;9.20;99.90;;;;;;5148107;27;20096;-67
2022/11/23 12:35:52;;;;;;;9.52;2.10;;;9.20;99.90;;;;;;5142029;27;20049;-67
2022/11/23 12:38:29;;;;;;;12.53;1.90;;;9.30;99.90;;;;;;5147709;27;20043;-67
2022/11/23 12:41:14;;;;;;;6.68;1.35;;;9.20;99.90;;;;;;5127038;27;20288;-68
2022/11/23 12:43:58;;;;;;;6.25;1.60;;;9.30;99.90;;;;;;5124978;27;20039;-67
2022/11/23 12:46:32;;;;;;;8.23;2.05;;;9.40;99.90;;;;;;5144033;27;20417;-67
2022/11/23 12:49:19;;;;;;;7.50;1.75;;;9.30;99.90;;;;;;5143493;27;20043;-68
2022/11/23 12:52:06;;;;;;;8.00;1.92;;;9.30;99.90;;;;;;5143858;27;20046;-68
2022/11/23 12:54:59;;;;;;;9.05;1.92;;;9.30;99.90;;;;;;5123765;27;20054;-67
2022/11/23 12:57:51;;;;;;;13.77;2.15;;;9.30;99.90;;;;;;5125535;27;20334;-68